Time;durP1;ratioP1;P1;durP2;ratioP2;P2;SDS_P1;SDS_P2;PMS_P1;PMS_P2;Temp;Humidity;BMP_temperature;BMP_pressure;BME280_temperature;BME280_humidity;BME280_pressure;Samples;Min_cycle;Max_cycle;Signal;HPM_P1;HPM_P2
2022/12/29 00:02:13;;;;;;;2.47;1.02;;;;;;;8.68;100.00;98567.88;5062318;28;20472;-93
2022/12/29 00:04:39;;;;;;;2.85;1.05;;;;;;;8.68;100.00;98578.72;5060498;28;20381;-92
2022/12/29 00:07:05;;;;;;;4.22;1.00;;;;;;;8.72;100.00;98568.09;5060616;28;20412;-93
2022/12/29 00:09:31;;;;;;;2.58;1.05;;;;;;;8.82;100.00;98567.22;5043176;28;20033;-92
2022/12/29 00:11:57;;;;;;;3.95;1.30;;;;;;;8.84;100.00;98570.47;5060882;28;20044;-93
2022/12/29 00:17:07;;;;;;;1.48;0.55;;;;;;;8.83;100.00;98547.91;5060225;28;20508;-92
2022/12/29 00:35:52;;;;;;;1.58;0.93;;;;;;;8.89;100.00;98521.50;5059820;28;20052;-94
2022/12/29 00:46:33;;;;;;;2.38;0.40;;;;;;;8.85;100.00;98515.81;5060413;28;20043;-93
2022/12/29 00:51:44;;;;;;;1.33;0.65;;;;;;;8.92;100.00;98511.97;5060288;28;20051;-95
2022/12/29 00:54:09;;;;;;;2.97;1.73;;;;;;;8.92;100.00;98501.91;5061016;28;20120;-94
2022/12/29 00:56:34;;;;;;;0.40;0.28;;;;;;;8.92;100.00;98501.91;5057910;28;20058;-94
2022/12/29 00:59:01;;;;;;;0.45;0.20;;;;;;;8.94;100.00;98494.28;5058610;28;20041;-93
2022/12/29 01:01:26;;;;;;;0.60;0.40;;;;;;;8.92;100.00;98501.91;5059975;28;20040;-93
2022/12/29 01:03:52;;;;;;;2.30;0.73;;;;;;;8.96;100.00;98491.28;5057909;28;20043;-93
2022/12/29 01:06:17;;;;;;;1.00;0.45;;;;;;;8.96;100.00;98502.16;5058672;28;20040;-93
2022/12/29 01:08:42;;;;;;;0.85;0.40;;;;;;;8.95;100.00;98509.47;5059383;28;20076;-93
2022/12/29 01:11:10;;;;;;;0.57;0.30;;;;;;;8.91;100.00;98507.66;5060333;28;20556;-93
2022/12/29 01:13:37;;;;;;;1.63;0.57;;;;;;;8.93;100.00;98497.28;5057481;28;20036;-93
2022/12/29 01:16:04;;;;;;;1.58;0.38;;;;;;;8.94;100.00;98494.28;5058071;28;20091;-92
2022/12/29 01:18:29;;;;;;;1.70;0.45;;;;;;;8.95;100.00;98495.91;5059253;28;20036;-93
2022/12/29 01:21:02;;;;;;;1.27;0.40;;;;;;;8.97;100.00;98482.81;5059921;28;20378;-92
2022/12/29 01:23:28;;;;;;;1.75;0.65;;;;;;;8.98;100.00;98480.94;5060357;28;20063;-93
2022/12/29 01:25:54;;;;;;;1.08;0.20;;;;;;;8.97;100.00;98488.25;5058095;28;20203;-92
2022/12/29 01:28:19;;;;;;;1.33;0.45;;;;;;;9.02;100.00;98490.13;5060872;28;20032;-92
2022/12/29 01:30:44;;;;;;;0.90;0.30;;;;;;;9.01;100.00;98493.16;5059405;28;20029;-93
2022/12/29 01:33:09;;;;;;;1.03;0.30;;;;;;;9.02;100.00;98486.59;5059748;28;20482;-94
2022/12/29 01:35:35;;;;;;;0.40;0.10;;;;;;;9.04;100.00;98490.66;5057627;28;20297;-93
2022/12/29 01:38:00;;;;;;;0.70;0.30;;;;;;;9.10;100.00;98505.03;5059139;28;20289;-94
2022/12/29 01:40:25;;;;;;;0.57;0.17;;;;;;;9.09;100.00;98498.75;5058045;28;20281;-91
2022/12/29 01:42:50;;;;;;;1.17;0.25;;;;;;;9.11;100.00;98503.94;5059087;28;20280;-95
2022/12/29 01:45:17;;;;;;;1.17;0.40;;;;;;;9.09;100.00;98487.09;5059359;28;20078;-94
2022/12/29 01:48:03;;;;;;;1.52;0.30;;;;;;;9.13;100.00;98495.50;5059094;28;20072;-92
2022/12/29 01:50:31;;;;;;;0.80;0.30;;;;;;;9.11;100.00;98498.50;5058179;28;20049;-93
2022/12/29 01:53:05;;;;;;;1.45;0.20;;;;;;;9.14;100.00;98481.59;5058505;28;20040;-93
2022/12/29 01:55:35;;;;;;;0.68;0.30;;;;;;;9.13;100.00;98482.72;5055688;28;20061;-94
2022/12/29 01:58:04;;;;;;;1.50;0.10;;;;;;;9.13;100.00;98493.59;5058626;28;20351;-92
2022/12/29 02:00:30;;;;;;;0.68;0.38;;;;;;;9.15;100.00;98488.69;5040485;28;20451;-93
2022/12/29 02:02:55;;;;;;;1.27;0.50;;;;;;;9.15;100.00;98494.13;5057247;28;20043;-93
2022/12/29 02:05:45;;;;;;;1.33;0.22;;;;;;;9.17;100.00;98483.72;5058567;28;20032;-94
2022/12/29 02:08:12;;;;;;;0.70;0.20;;;;;;;9.11;100.00;98485.69;5058711;28;20036;-94
2022/12/29 02:10:39;;;;;;;0.40;0.20;;;;;;;9.18;100.00;98479.09;5060107;28;20035;-95
2022/12/29 02:13:04;;;;;;;0.70;0.20;;;;;;;9.20;100.00;98479.63;5059093;28;20039;-94
2022/12/29 02:15:53;;;;;;;0.95;0.30;;;;;;;9.18;100.00;98471.78;5058902;28;20029;-92
2022/12/29 02:18:46;;;;;;;1.73;0.52;;;;;;;9.25;100.00;98459.75;5060762;28;20032;-95
2022/12/29 02:21:44;;;;;;;0.25;0.10;;;;;;;9.25;100.00;98470.63;5059222;28;20276;-95
2022/12/29 02:24:28;;;;;;;0.35;0.10;;;;;;;9.26;100.00;98469.50;5060686;28;20032;-95
2022/12/29 02:27:22;;;;;;;0.40;0.10;;;;;;;9.27;100.00;98463.00;5058059;28;20041;-92
2022/12/29 02:30:04;;;;;;;0.22;0.10;;;;;;;9.22;100.00;98440.19;5057726;28;20047;-93
2022/12/29 02:32:48;;;;;;;0.40;0.17;;;;;;;9.28;100.00;98459.16;5060511;28;20167;-94
2022/12/29 02:35:36;;;;;;;0.47;0.30;;;;;;;9.30;100.00;98459.69;5058286;28;20543;-92
2022/12/29 02:38:18;;;;;;;0.20;0.20;;;;;;;9.26;100.00;98447.75;5055600;28;20041;-95
2022/12/29 02:41:07;;;;;;;1.17;0.32;;;;;;;9.31;100.00;98447.72;5059982;28;20052;-94
2022/12/29 02:43:44;;;;;;;0.38;0.10;;;;;;;9.27;100.00;98454.81;5058195;28;20039;-93
2022/12/29 02:46:20;;;;;;;1.40;0.50;;;;;;;9.32;99.78;98452.03;5057798;28;20462;-94
2022/12/29 02:49:01;;;;;;;2.75;0.30;;;;;;;9.36;99.57;98446.84;5056978;28;20033;-93
2022/12/29 02:51:32;;;;;;;0.10;0.10;;;;;;;9.34;99.02;98441.69;5057756;28;20032;-93
2022/12/29 02:56:42;;;;;;;2.13;0.40;;;;;;;9.35;97.73;98432.44;5056542;28;20058;-93
2022/12/29 02:59:08;;;;;;;1.10;0.35;;;;;;;9.36;97.97;98425.88;5058265;28;20029;-93
2022/12/29 03:02:16;;;;;;;1.65;0.63;;;;;;;9.42;96.93;98435.59;5057162;28;20060;-94
2022/12/29 03:04:37;;;;;;;1.40;0.40;;;;;;;9.45;96.29;98440.50;5056811;28;20477;-94
2022/12/29 03:07:20;;;;;;;3.35;0.40;;;;;;;9.48;96.39;98430.13;5058349;28;20021;-93
2022/12/29 03:10:07;;;;;;;0.83;0.30;;;;;;;9.52;95.39;98431.97;5059002;28;20033;-92
2022/12/29 03:18:34;;;;;;;1.75;0.40;;;;;;;9.49;95.65;98434.44;5057420;28;20039;-94
2022/12/29 03:21:09;;;;;;;1.85;0.50;;;;;;;9.43;95.78;98422.81;5056982;28;20127;-94
2022/12/29 03:23:37;;;;;;;0.80;0.30;;;;;;;9.47;95.23;98434.75;5056013;28;20033;-94
2022/12/29 03:26:08;;;;;;;0.63;0.40;;;;;;;9.51;95.31;98429.53;5058959;28;20394;-94
2022/12/29 03:28:39;;;;;;;1.42;0.30;;;;;;;9.56;94.71;98421.28;5061903;28;20036;-95
2022/12/29 03:31:07;;;;;;;3.13;0.70;;;;;;;9.52;95.66;98409.41;5061329;28;20176;-94
2022/12/29 03:33:33;;;;;;;0.75;0.20;;;;;;;9.50;95.56;98414.31;5061860;28;20024;-94
2022/12/29 03:36:03;;;;;;;0.28;0.20;;;;;;;9.54;95.63;98415.38;5059072;28;20029;-94
2022/12/29 03:38:35;;;;;;;2.00;0.50;;;;;;;9.51;95.09;98421.38;5060481;28;20071;-94
2022/12/29 03:41:04;;;;;;;1.85;0.30;;;;;;;9.52;95.40;98420.28;5059366;28;20033;-94
2022/12/29 03:43:29;;;;;;;1.48;0.20;;;;;;;9.49;95.30;98418.13;5062178;28;20059;-95
2022/12/29 03:45:55;;;;;;;1.98;0.30;;;;;;;9.45;95.65;98412.47;5059577;28;20032;-93
2022/12/29 03:48:20;;;;;;;2.17;0.30;;;;;;;9.46;96.04;98420.34;5062077;28;20029;-95
2022/12/29 03:50:45;;;;;;;1.30;0.50;;;;;;;9.42;96.62;98416.56;5041437;28;20051;-94
2022/12/29 03:53:10;;;;;;;0.57;0.27;;;;;;;9.37;97.30;98408.47;5061770;28;20309;-95
2022/12/29 03:55:36;;;;;;;1.33;0.40;;;;;;;9.30;98.35;98397.13;5041041;28;20289;-93
2022/12/29 03:58:01;;;;;;;1.45;0.40;;;;;;;9.27;98.67;98411.31;5059562;28;20278;-94
2022/12/29 04:00:28;;;;;;;1.80;0.43;;;;;;;9.27;99.01;98400.44;5061532;28;20034;-94
2022/12/29 04:02:53;;;;;;;1.92;0.40;;;;;;;9.25;99.05;98399.91;5060005;28;20548;-94
2022/12/29 04:05:19;;;;;;;2.03;1.00;;;;;;;9.17;99.92;98388.56;5061018;28;20075;-96
2022/12/29 04:07:44;;;;;;;0.30;0.20;;;;;;;9.22;99.64;98384.97;5058189;28;20063;-95
2022/12/29 04:10:09;;;;;;;1.03;0.30;;;;;;;9.19;99.63;98389.06;5058281;28;20092;-94
2022/12/29 04:12:34;;;;;;;3.03;0.28;;;;;;;9.22;99.91;98399.41;5061624;28;20276;-94
2022/12/29 04:15:00;;;;;;;1.75;0.32;;;;;;;9.23;99.69;98381.19;5059719;28;20029;-94
2022/12/29 04:17:25;;;;;;;0.82;0.30;;;;;;;9.27;99.59;98378.69;5059558;28;20048;-93
2022/12/29 04:19:51;;;;;;;1.25;0.50;;;;;;;9.30;99.11;98378.09;5059283;28;20055;-95
2022/12/29 04:22:16;;;;;;;1.10;0.32;;;;;;;9.28;99.28;98366.69;5057942;28;20350;-94
2022/12/29 04:24:41;;;;;;;2.13;0.53;;;;;;;9.21;99.05;98365.13;5058233;28;20059;-94
2022/12/29 04:27:06;;;;;;;1.80;0.47;;;;;;;9.29;99.17;98362.88;5058319;28;20254;-93
2022/12/29 04:29:32;;;;;;;1.15;0.30;;;;;;;9.32;98.38;98356.84;5059929;28;20261;-93
2022/12/29 04:31:57;;;;;;;0.40;0.40;;;;;;;9.34;97.88;98350.03;5059685;28;20060;-93
2022/12/29 04:34:22;;;;;;;0.53;0.23;;;;;;;9.33;97.62;98331.28;5061253;28;20096;-94
2022/12/29 04:36:47;;;;;;;0.45;0.40;;;;;;;9.37;97.56;98326.88;5059230;28;20278;-95
2022/12/29 04:39:13;;;;;;;5.10;1.75;;;;;;;9.39;96.99;98324.69;5059816;28;20481;-94
2022/12/29 04:41:38;;;;;;;1.20;0.40;;;;;;;9.43;96.70;98352.09;5059029;28;20024;-95
2022/12/29 04:44:03;;;;;;;1.47;0.37;;;;;;;9.44;96.34;98353.69;5059596;28;20036;-92
2022/12/29 04:46:29;;;;;;;1.33;0.82;;;;;;;9.46;96.39;98360.47;5059677;28;20297;-95
2022/12/29 04:48:54;;;;;;;0.47;0.17;;;;;;;9.49;95.70;98355.56;5060706;28;20090;-94
2022/12/29 04:51:19;;;;;;;0.70;0.30;;;;;;;9.60;94.63;98373.34;5058068;28;20250;-91
2022/12/29 04:53:44;;;;;;;0.63;0.20;;;;;;;9.63;94.31;98382.84;5058598;28;20323;-91
2022/12/29 04:56:10;;;;;;;3.15;0.30;;;;;;;9.65;94.15;98359.69;5057183;28;20421;-92
2022/12/29 04:58:36;;;;;;;1.53;0.27;;;;;;;9.65;93.66;98365.13;5059584;28;20033;-91
2022/12/29 05:01:01;;;;;;;2.88;0.35;;;;;;;9.67;93.30;98349.34;5057778;28;20768;-92
2022/12/29 05:03:27;;;;;;;1.08;0.30;;;;;;;9.73;93.05;98365.56;5058283;28;20050;-90
2022/12/29 05:05:56;;;;;;;1.40;0.97;;;;;;;9.73;92.76;98362.84;5057732;28;20033;-92
2022/12/29 05:08:22;;;;;;;2.13;0.50;;;;;;;9.76;92.42;98357.63;5056868;28;20352;-92
2022/12/29 05:10:50;;;;;;;2.05;0.40;;;;;;;9.82;91.61;98374.72;5058894;28;20499;-91
2022/12/29 05:13:15;;;;;;;2.45;0.28;;;;;;;9.80;91.91;98377.72;5058411;28;20028;-92
2022/12/29 05:15:41;;;;;;;1.00;0.47;;;;;;;9.84;91.60;98358.91;5056778;28;20108;-91
2022/12/29 05:18:06;;;;;;;0.67;0.30;;;;;;;9.84;91.86;98382.59;5058758;28;20288;-93
2022/12/29 05:20:31;;;;;;;1.27;0.20;;;;;;;9.78;91.10;98379.13;5058052;28;20322;-94
2022/12/29 05:22:56;;;;;;;1.90;0.53;;;;;;;9.86;90.01;98385.81;5056834;28;20694;-92
2022/12/29 05:25:22;;;;;;;1.55;0.55;;;;;;;9.87;90.17;98379.25;5060606;28;20322;-93
2022/12/29 05:27:47;;;;;;;1.80;0.80;;;;;;;9.86;89.79;98386.63;5057987;28;20085;-93
2022/12/29 05:30:12;;;;;;;0.93;0.40;;;;;;;9.91;88.49;98385.75;5058051;28;20274;-92
2022/12/29 05:32:38;;;;;;;8.85;1.08;;;;;;;9.91;88.72;98383.03;5058118;28;20751;-92
2022/12/29 05:35:03;;;;;;;3.30;0.52;;;;;;;9.93;88.97;98384.34;5060215;28;20036;-91
2022/12/29 05:37:28;;;;;;;0.60;0.32;;;;;;;9.92;88.51;98390.91;5057579;28;20037;-89
2022/12/29 05:39:54;;;;;;;1.53;0.30;;;;;;;10.01;87.52;98398.41;5057214;28;20360;-91
2022/12/29 05:42:19;;;;;;;1.27;0.60;;;;;;;9.99;87.74;98395.97;5058546;28;20747;-91
2022/12/29 05:44:44;;;;;;;3.43;0.53;;;;;;;9.95;86.87;98405.81;5058016;28;20257;-91
2022/12/29 05:47:10;;;;;;;3.33;0.47;;;;;;;9.99;87.15;98400.59;5058386;28;20335;-90
2022/12/29 05:49:35;;;;;;;1.50;0.50;;;;;;;9.95;87.02;98399.56;5040066;28;20206;-91
2022/12/29 05:52:00;;;;;;;1.40;0.40;;;;;;;10.02;87.31;98403.56;5058560;28;20174;-91
2022/12/29 05:54:25;;;;;;;1.57;0.60;;;;;;;10.00;87.24;98392.16;5057965;28;20123;-91
2022/12/29 05:56:51;;;;;;;1.77;0.60;;;;;;;10.00;86.62;98392.16;5058149;28;20272;-91
2022/12/29 05:59:16;;;;;;;1.48;0.45;;;;;;;9.95;87.12;98372.34;5057428;28;20455;-90
2022/12/29 06:01:41;;;;;;;1.65;0.45;;;;;;;9.99;86.82;98384.25;5059408;28;20246;-90
2022/12/29 06:04:06;;;;;;;3.22;0.40;;;;;;;9.96;86.16;98380.25;5058946;28;20119;-91
2022/12/29 06:06:32;;;;;;;0.88;0.40;;;;;;;10.00;86.71;98402.22;5057351;28;20024;-91
2022/12/29 06:08:57;;;;;;;3.28;1.17;;;;;;;10.00;86.17;98396.78;5058902;28;20450;-90
2022/12/29 06:11:22;;;;;;;2.72;0.40;;;;;;;10.00;85.60;98391.34;5057457;28;20355;-92
2022/12/29 06:13:47;;;;;;;1.93;0.70;;;;;;;10.04;85.08;98398.63;5057975;28;20025;-91
2022/12/29 06:16:13;;;;;;;2.93;0.60;;;;;;;10.07;84.89;98415.50;5056028;28;20284;-91
2022/12/29 06:18:38;;;;;;;1.60;0.40;;;;;;;10.01;85.74;98398.41;5058670;28;20285;-92
2022/12/29 06:21:04;;;;;;;1.67;0.47;;;;;;;9.98;85.42;98409.88;5058489;28;20910;-93
2022/12/29 06:23:30;;;;;;;2.38;0.65;;;;;;;9.98;84.43;98407.97;5057637;28;20258;-92
2022/12/29 06:25:55;;;;;;;1.35;0.57;;;;;;;10.00;84.64;98413.13;5056414;28;20032;-91
2022/12/29 06:28:21;;;;;;;2.03;0.40;;;;;;;10.07;84.14;98416.28;5039708;28;20033;-91
2022/12/29 06:30:48;;;;;;;4.85;0.45;;;;;;;10.04;84.63;98422.31;5059162;28;20029;-91
2022/12/29 06:33:13;;;;;;;2.15;0.68;;;;;;;10.05;84.48;98432.09;5059758;28;20505;-92
2022/12/29 06:35:39;;;;;;;1.25;0.52;;;;;;;10.03;83.84;98423.41;5057884;28;20028;-90
2022/12/29 06:38:05;;;;;;;4.10;0.60;;;;;;;10.12;83.80;98440.72;5058612;28;20040;-93
2022/12/29 06:40:30;;;;;;;3.90;0.65;;;;;;;10.12;83.45;98443.47;5057673;28;20397;-93
2022/12/29 06:42:56;;;;;;;3.70;0.73;;;;;;;10.18;82.59;98459.72;5057914;28;20029;-91
2022/12/29 06:45:21;;;;;;;2.97;0.67;;;;;;;10.18;83.00;98467.88;5058177;28;20120;-91
2022/12/29 06:47:46;;;;;;;1.30;0.40;;;;;;;10.15;82.84;98459.19;5057045;28;20258;-91
2022/12/29 06:50:12;;;;;;;1.02;0.40;;;;;;;10.14;83.50;98465.75;5057748;28;20254;-92
2022/12/29 06:52:37;;;;;;;10.88;0.55;;;;;;;10.16;82.97;98470.91;5057853;28;20047;-90
2022/12/29 06:55:02;;;;;;;4.07;0.40;;;;;;;10.18;83.08;98473.31;5057769;28;20580;-91
2022/12/29 06:57:28;;;;;;;1.10;0.30;;;;;;;10.15;82.31;98486.44;5057334;28;20258;-91
2022/12/29 06:59:55;;;;;;;1.85;0.80;;;;;;;10.21;83.18;98483.66;5060543;28;20036;-92
2022/12/29 07:02:21;;;;;;;3.65;0.47;;;;;;;10.10;83.61;98482.97;5062029;28;20131;-92
2022/12/29 07:04:46;;;;;;;1.75;0.47;;;;;;;10.11;83.13;98479.16;5062321;28;20183;-91
2022/12/29 07:07:11;;;;;;;1.20;0.50;;;;;;;10.01;82.99;98504.59;5060437;28;20056;-91
2022/12/29 07:09:37;;;;;;;4.80;1.00;;;;;;;10.02;83.25;98503.50;5060422;28;20050;-93
2022/12/29 07:12:02;;;;;;;3.50;0.80;;;;;;;9.99;83.81;98483.09;5060777;28;20047;-91
2022/12/29 07:14:27;;;;;;;1.20;0.20;;;;;;;9.93;83.16;98473.38;5059471;28;20785;-93
2022/12/29 07:16:52;;;;;;;5.80;2.13;;;;;;;9.96;82.56;98482.88;5061471;28;20037;-90
2022/12/29 07:19:18;;;;;;;0.80;0.20;;;;;;;9.96;83.62;98486.41;5062573;28;20273;-92
2022/12/29 07:21:43;;;;;;;2.78;1.05;;;;;;;10.01;83.49;98485.53;5043507;28;20090;-94
2022/12/29 07:24:09;;;;;;;2.30;1.03;;;;;;;10.01;83.11;98483.63;5059114;28;20087;-93
2022/12/29 07:26:36;;;;;;;1.58;0.50;;;;;;;9.93;83.54;98484.25;5059918;28;20261;-96
2022/12/29 07:29:01;;;;;;;0.93;0.30;;;;;;;9.93;82.51;98506.88;5059472;28;20401;-94
2022/12/29 07:31:26;;;;;;;1.58;0.38;;;;;;;9.93;81.91;98504.13;5061077;28;20029;-90
2022/12/29 07:33:51;;;;;;;3.10;0.70;;;;;;;9.93;82.23;98501.41;5061760;28;20044;-90
2022/12/29 07:36:17;;;;;;;2.23;0.37;;;;;;;9.87;82.24;98513.47;5058826;28;20265;-93
2022/12/29 07:38:42;;;;;;;1.95;0.30;;;;;;;9.90;82.57;98502.00;5060842;28;20326;-95
2022/12/29 07:41:08;;;;;;;2.08;0.45;;;;;;;9.90;82.60;98506.66;5062487;28;20028;-94
2022/12/29 07:43:34;;;;;;;4.05;0.70;;;;;;;9.99;82.63;98520.41;5063229;28;20045;-93
2022/12/29 07:45:59;;;;;;;2.22;1.00;;;;;;;9.93;82.08;98514.22;5058888;28;20068;-95
2022/12/29 07:48:24;;;;;;;9.95;1.48;;;;;;;9.89;81.61;98535.78;5061663;28;20130;-94
2022/12/29 07:50:50;;;;;;;4.57;0.53;;;;;;;9.88;81.17;98541.50;5059775;28;20191;-94
2022/12/29 07:53:15;;;;;;;3.15;1.05;;;;;;;9.88;80.54;98546.94;5061361;28;20262;-95
2022/12/29 07:55:41;;;;;;;3.85;0.60;;;;;;;9.87;80.91;98531.72;5042279;28;20057;-96
2022/12/29 07:58:06;;;;;;;2.65;0.95;;;;;;;9.92;80.27;98548.81;5058560;28;20043;-92
2022/12/29 08:00:32;;;;;;;4.57;0.93;;;;;;;9.87;81.08;98550.75;5060935;28;20111;-90
2022/12/29 08:02:57;;;;;;;3.83;0.80;;;;;;;9.98;80.54;98560.44;5060597;28;20051;-92
2022/12/29 08:05:22;;;;;;;3.43;0.80;;;;;;;9.97;80.92;98572.44;5060449;28;20266;-89
2022/12/29 08:07:48;;;;;;;1.13;0.60;;;;;;;9.91;80.40;98571.69;5059240;28;20261;-88
2022/12/29 08:10:14;;;;;;;2.90;0.93;;;;;;;9.89;80.32;98554.81;5043159;28;20033;-93
2022/12/29 08:12:41;;;;;;;2.35;0.45;;;;;;;9.97;80.80;98563.44;5042919;28;20021;-91
2022/12/29 08:15:08;;;;;;;5.95;0.80;;;;;;;9.90;78.60;98561.09;5062428;28;20159;-92
2022/12/29 08:17:33;;;;;;;5.22;0.80;;;;;;;9.87;78.60;98573.38;5059218;28;20038;-91
2022/12/29 08:19:58;;;;;;;3.90;0.47;;;;;;;9.89;78.57;98557.56;5066812;28;20025;-92
2022/12/29 08:22:24;;;;;;;2.45;0.82;;;;;;;9.95;78.91;98562.91;5062644;28;20457;-92
2022/12/29 08:24:49;;;;;;;3.30;1.13;;;;;;;9.94;78.44;98556.69;5058628;28;20200;-92
2022/12/29 08:27:14;;;;;;;4.20;0.63;;;;;;;9.97;78.28;98566.16;5058306;28;20293;-91
2022/12/29 08:29:39;;;;;;;2.90;0.70;;;;;;;9.92;78.33;98558.88;5060800;28;20056;-92
2022/12/29 08:32:06;;;;;;;4.33;0.90;;;;;;;9.79;77.30;98554.94;5042378;28;20033;-92
2022/12/29 08:34:32;;;;;;;8.77;1.95;;;;;;;9.85;77.10;98559.22;5060403;28;20242;-90
2022/12/29 08:36:57;;;;;;;1.98;0.40;;;;;;;9.91;76.55;98549.91;5060489;28;20401;-88
2022/12/29 08:39:22;;;;;;;4.05;1.10;;;;;;;9.99;76.55;98563.97;5060003;28;20036;-91
2022/12/29 08:41:47;;;;;;;2.00;0.50;;;;;;;9.99;77.25;98558.53;5058246;28;20476;-90
2022/12/29 08:44:13;;;;;;;3.72;0.82;;;;;;;9.95;77.14;98568.38;5058727;28;20261;-91
2022/12/29 08:46:38;;;;;;;2.67;0.60;;;;;;;10.03;77.17;98567.72;5059821;28;20032;-90
2022/12/29 08:49:04;;;;;;;2.20;0.55;;;;;;;10.00;77.16;98574.59;5059582;28;20064;-90
2022/12/29 08:51:29;;;;;;;5.10;1.35;;;;;;;10.04;77.34;98570.19;5059625;28;20024;-89
2022/12/29 08:53:54;;;;;;;7.67;2.47;;;;;;;10.00;76.86;98576.50;5042733;28;20137;-89
2022/12/29 08:56:20;;;;;;;6.77;1.23;;;;;;;9.99;76.78;98577.56;5058891;28;20340;-90
2022/12/29 08:58:45;;;;;;;1.15;0.50;;;;;;;10.04;77.77;98582.97;5041595;28;20284;-90
2022/12/29 09:01:10;;;;;;;1.67;0.60;;;;;;;9.93;79.27;98572.19;5059094;28;20021;-91
2022/12/29 09:03:36;;;;;;;61.60;6.47;;;;;;;9.75;80.44;98565.59;5040345;28;20536;-90
2022/12/29 09:06:01;;;;;;;2.30;0.80;;;;;;;9.54;82.49;98584.84;5057505;28;20028;-93
2022/12/29 09:08:26;;;;;;;3.25;0.50;;;;;;;9.50;83.08;98578.34;5058821;28;20037;-90
2022/12/29 09:10:52;;;;;;;6.07;1.52;;;;;;;9.47;83.52;98587.09;5058032;28;20055;-92
2022/12/29 09:13:18;;;;;;;5.43;0.75;;;;;;;9.50;83.02;98586.50;5058303;28;20097;-91
2022/12/29 09:15:43;;;;;;;1.55;0.88;;;;;;;9.50;83.20;98589.25;5058085;28;20033;-91
2022/12/29 09:18:10;;;;;;;6.50;1.40;;;;;;;9.54;83.18;98592.22;5040659;28;20031;-91
2022/12/29 09:20:35;;;;;;;5.30;1.50;;;;;;;9.56;82.72;98622.66;5057950;28;20502;-91
2022/12/29 09:23:01;;;;;;;8.43;1.07;;;;;;;9.57;83.03;98599.78;5060050;28;20064;-91
2022/12/29 09:25:27;;;;;;;5.00;0.55;;;;;;;9.58;83.08;98604.13;5055026;28;20266;-91
2022/12/29 09:27:52;;;;;;;3.85;1.45;;;;;;;9.64;82.09;98610.34;5040634;28;20016;-90
2022/12/29 09:30:20;;;;;;;11.48;2.08;;;;;;;9.64;81.65;98622.03;5059699;28;20052;-91
2022/12/29 09:32:46;;;;;;;3.28;0.50;;;;;;;9.69;81.50;98619.28;5055093;28;20020;-89
2022/12/29 09:35:13;;;;;;;4.18;0.60;;;;;;;9.77;81.99;98622.47;5059012;28;20466;-90
2022/12/29 09:37:38;;;;;;;5.13;1.25;;;;;;;9.74;80.90;98620.31;5058273;28;20040;-90
2022/12/29 09:40:05;;;;;;;2.33;0.63;;;;;;;9.87;80.65;98629.72;5058337;28;20036;-90
2022/12/29 09:43:02;;;;;;;3.15;0.68;;;;;;;9.79;80.11;98625.72;5058573;28;20257;-90
2022/12/29 09:45:49;;;;;;;7.45;0.57;;;;;;;9.78;80.34;98624.09;5033403;28;20024;-90
2022/12/29 09:48:19;;;;;;;2.10;0.57;;;;;;;9.66;80.38;98616.31;5055997;28;20465;-90
2022/12/29 09:50:50;;;;;;;4.85;0.85;;;;;;;9.66;80.69;98622.56;5058556;28;20025;-87
2022/12/29 09:53:24;;;;;;;2.38;0.68;;;;;;;9.67;81.08;98624.19;5057001;28;20111;-91
2022/12/29 09:56:00;;;;;;;6.05;0.70;;;;;;;9.75;80.82;98622.75;5058681;28;20477;-92
2022/12/29 09:59:02;;;;;;;6.88;0.80;;;;;;;9.73;80.04;98627.69;5056364;28;20028;-89
2022/12/29 10:01:27;;;;;;;2.50;0.80;;;;;;;9.69;81.27;98632.88;5056436;28;20036;-89
2022/12/29 10:03:55;;;;;;;3.20;0.90;;;;;;;9.67;80.85;98623.38;5059364;28;20114;-93
2022/12/29 10:06:31;;;;;;;9.35;0.90;;;;;;;9.68;80.62;98633.97;5059007;28;20265;-92
2022/12/29 10:09:19;;;;;;;5.15;1.13;;;;;;;9.69;79.63;98624.72;5055341;28;20040;-90
2022/12/29 10:11:55;;;;;;;7.30;0.98;;;;;;;9.71;79.12;98618.16;5037201;28;20033;-91
2022/12/29 10:14:58;;;;;;;8.55;0.88;;;;;;;9.78;78.65;98618.66;5059734;28;20024;-91
2022/12/29 10:17:54;;;;;;;5.85;1.48;;;;;;;9.78;76.86;98610.50;5057886;28;20049;-89
2022/12/29 10:20:41;;;;;;;3.58;1.15;;;;;;;9.78;76.69;98614.00;5057694;28;20104;-91
2022/12/29 10:23:20;;;;;;;4.63;1.13;;;;;;;9.78;76.64;98602.31;5058851;28;20025;-89
2022/12/29 10:25:46;;;;;;;2.45;0.55;;;;;;;9.79;76.11;98606.66;5057960;28;20037;-90
2022/12/29 10:28:23;;;;;;;4.00;1.45;;;;;;;9.88;75.72;98631.34;5058667;28;20043;-91
2022/12/29 10:30:50;;;;;;;3.00;1.35;;;;;;;9.85;75.45;98619.13;5058704;28;20029;-91
2022/12/29 10:33:23;;;;;;;6.57;1.35;;;;;;;9.96;75.52;98624.47;5057785;28;20052;-91
2022/12/29 10:35:50;;;;;;;2.97;1.07;;;;;;;9.99;74.32;98612.97;5059198;28;20063;-90
2022/12/29 10:38:41;;;;;;;11.75;1.10;;;;;;;10.05;74.18;98617.28;5062640;28;20033;-90
2022/12/29 10:41:20;;;;;;;2.65;1.00;;;;;;;10.08;74.05;98613.97;5060948;28;20021;-91
2022/12/29 10:43:48;;;;;;;7.28;2.03;;;;;;;10.05;73.20;98628.16;5044999;28;20024;-90
2022/12/29 10:46:20;;;;;;;4.70;0.70;;;;;;;10.06;72.35;98627.06;5061554;28;20029;-90
2022/12/29 10:48:46;;;;;;;2.75;0.50;;;;;;;10.13;72.22;98613.91;5060522;28;20059;-89
2022/12/29 10:51:20;;;;;;;2.70;0.70;;;;;;;10.25;71.52;98623.59;5061171;28;20028;-92
2022/12/29 10:53:50;;;;;;;3.88;0.43;;;;;;;10.24;71.50;98628.22;5060672;28;20048;-93
2022/12/29 10:56:35;;;;;;;2.92;0.70;;;;;;;10.23;70.98;98642.16;5039912;28;20553;-91
2022/12/29 10:59:18;;;;;;;3.85;0.85;;;;;;;10.12;71.42;98628.66;5041875;28;20031;-91
2022/12/29 11:02:06;;;;;;;3.78;0.82;;;;;;;10.06;71.52;98629.81;5043074;28;20036;-92
2022/12/29 11:04:39;;;;;;;4.80;0.95;;;;;;;10.15;71.73;98625.31;5031385;28;20458;-92
2022/12/29 11:07:06;;;;;;;5.78;1.10;;;;;;;10.19;71.00;98632.94;5039574;28;20124;-91
2022/12/29 11:09:36;;;;;;;3.63;0.70;;;;;;;10.18;70.80;98634.84;5042696;28;20295;-91
2022/12/29 11:12:19;;;;;;;5.82;1.08;;;;;;;10.14;71.55;98647.41;5042256;28;20028;-91
2022/12/29 11:14:44;;;;;;;2.72;1.95;;;;;;;10.15;71.69;98659.91;5040793;28;20453;-90
2022/12/29 11:17:15;;;;;;;8.05;1.23;;;;;;;10.13;71.56;98646.59;5040251;28;20071;-92
2022/12/29 11:19:41;;;;;;;6.32;1.42;;;;;;;10.13;71.26;98645.78;5040883;28;20025;-92
2022/12/29 11:22:27;;;;;;;3.20;1.08;;;;;;;10.13;71.72;98640.31;5042014;28;20465;-91
2022/12/29 11:24:54;;;;;;;3.50;0.65;;;;;;;10.07;70.99;98653.19;5041014;28;20025;-91
2022/12/29 11:27:22;;;;;;;9.52;1.23;;;;;;;10.05;71.17;98647.22;5036657;28;20043;-91
2022/12/29 11:29:49;;;;;;;3.63;1.10;;;;;;;10.08;71.62;98654.84;5040172;28;20434;-92
2022/12/29 11:32:20;;;;;;;8.70;1.13;;;;;;;10.08;70.96;98654.84;5042660;28;20026;-91
2022/12/29 11:34:45;;;;;;;6.50;1.45;;;;;;;10.04;71.08;98675.56;5041297;28;20017;-90
2022/12/29 11:37:24;;;;;;;3.25;0.57;;;;;;;10.09;71.20;98663.81;5040531;28;20033;-92
2022/12/29 11:39:58;;;;;;;3.88;1.20;;;;;;;9.96;71.12;98689.81;5041481;28;20030;-91
2022/12/29 11:42:29;;;;;;;;;;;;;;;9.90;70.81;98675.44;5041962;28;20037;-91
2022/12/29 11:44:55;;;;;;;9.38;1.55;;;;;;;9.87;71.66;98682.25;5041115;28;19905;-91
2022/12/29 11:47:30;;;;;;;4.88;0.70;;;;;;;9.92;70.97;98679.50;5062936;28;20033;-91
2022/12/29 11:50:01;;;;;;;8.63;2.25;;;;;;;9.98;71.32;98690.34;5039523;28;20027;-92
2022/12/29 11:52:32;;;;;;;5.38;1.27;;;;;;;9.98;70.59;98691.16;5053905;28;20099;-90
2022/12/29 11:55:00;;;;;;;11.15;2.22;;;;;;;10.00;70.38;98686.22;5047318;28;20051;-91
2022/12/29 11:57:27;;;;;;;7.18;2.33;;;;;;;9.92;70.91;98695.84;5059281;28;20410;-91
2022/12/29 11:59:55;;;;;;;2.88;1.17;;;;;;;9.93;70.83;98702.91;5059336;28;20556;-92
2022/12/29 12:02:31;;;;;;;8.15;2.13;;;;;;;9.97;71.71;98713.19;5059607;28;20096;-91
2022/12/29 12:05:06;;;;;;;5.47;1.45;;;;;;;10.08;71.26;98712.03;5060535;28;20346;-92
2022/12/29 12:07:39;;;;;;;4.80;1.98;;;;;;;9.98;70.36;98704.75;5056567;28;20033;-92
2022/12/29 12:10:07;;;;;;;13.25;1.60;;;;;;;10.05;70.40;98704.41;5058963;28;20111;-89
2022/12/29 12:12:44;;;;;;;2.60;0.88;;;;;;;10.03;69.92;98703.88;5060914;28;20038;-91
2022/12/29 12:15:19;;;;;;;7.10;1.33;;;;;;;10.11;70.85;98722.31;5060611;28;20060;-92
2022/12/29 12:18:05;;;;;;;4.65;1.00;;;;;;;10.15;69.72;98715.22;5060821;28;20493;-90
2022/12/29 12:20:36;;;;;;;5.45;1.50;;;;;;;10.09;70.63;98727.25;5060974;28;20291;-93
2022/12/29 12:23:13;;;;;;;3.20;1.02;;;;;;;10.01;70.42;98708.81;5061083;28;20025;-93
2022/12/29 12:25:45;;;;;;;11.98;1.30;;;;;;;10.08;70.41;98712.03;5058822;28;20028;-91
2022/12/29 12:28:39;;;;;;;7.45;1.30;;;;;;;10.04;70.47;98719.97;5066634;28;20033;-91